Time,TemperatureF,DewpointF,PressureIn,WindDirection,WindDirectionDegrees,WindSpeedMPH,WindSpeedGustMPH,Humidity,HourlyPrecipIn,Conditions,Clouds,dailyrainin,SolarRadiationWatts/m^2,SoftwareType,DateUTC
2013-04-09 00:00:00,52.9,-99.9,29.76,East,90,25.5,43.9,38,0.00,,BKN250,0.00,0.00,VWS V14.01,2013-04-09 07:00:00,
2013-04-09 00:09:00,53.1,-99.9,29.74,ENE,68,25.3,41.2,38,0.00,,BKN075,0.00,,VWS V14.01,2013-04-09 07:09:00,
2013-04-09 00:10:00,53.1,-99.9,29.74,ENE,68,25.3,41.2,38,0.00,,BKN250,0.00,0.00,VWS V14.01,2013-04-09 07:10:00,
2013-04-09 00:19:00,52.5,-99.9,29.74,East,90,18.6,34.2,39,0.00,,BKN075,0.00,,VWS V14.01,2013-04-09 07:19:00,
2013-04-09 00:20:00,52.5,-99.9,29.74,East,90,18.6,34.2,39,0.00,,BKN250,0.00,0.00,VWS V14.01,2013-04-09 07:20:00,
2013-04-09 00:29:00,51.6,-99.9,29.74,ENE,68,11.2,31.8,42,0.00,,BKN075,0.00,,VWS V14.01,2013-04-09 07:29:00,
2013-04-09 00:30:00,51.6,-99.9,29.74,ENE,68,11.2,31.8,42,0.00,,BKN250,0.00,0.00,VWS V14.01,2013-04-09 07:30:00,
2013-04-09 00:39:00,48.9,-99.9,29.74,ESE,112,6.0,47.2,60,0.00,,BKN075,0.00,,VWS V14.01,2013-04-09 07:39:00,
2013-04-09 00:40:00,48.9,-99.9,29.74,ESE,112,6.0,47.2,60,0.00,,BKN250,0.00,0.00,VWS V14.01,2013-04-09 07:40:00,
2013-04-09 00:49:00,45.9,-99.9,29.74,SE,135,10.7,17.0,70,0.00,,BKN075,0.00,,VWS V14.01,2013-04-09 07:49:00,
2013-04-09 00:50:00,45.9,-99.9,29.74,SE,135,10.7,17.0,70,0.00,,BKN250,0.00,0.00,VWS V14.01,2013-04-09 07:50:00,
2013-04-09 01:00:00,44.6,-99.9,29.76,ESE,112,5.6,17.7,76,0.00,,BKN250,0.00,0.00,VWS V14.01,2013-04-09 08:00:00,
2013-04-09 01:09:00,44.2,-99.9,29.76,SE,135,16.1,17.2,77,0.00,,-RA,0.00,,VWS V14.01,2013-04-09 08:09:00,
2013-04-09 01:10:00,44.2,-99.9,29.76,SE,135,16.1,17.2,77,0.00,,BKN250,0.00,0.00,VWS V14.01,2013-04-09 08:10:00,
2013-04-09 01:19:00,46.6,-99.9,29.76,ESE,112,22.2,37.4,68,0.00,,-RA,0.00,,VWS V14.01,2013-04-09 08:19:00,
2013-04-09 01:20:00,46.6,-99.9,29.76,ESE,112,22.2,37.4,68,0.00,,BKN250,0.00,0.00,VWS V14.01,2013-04-09 08:20:00,
2013-04-09 01:29:00,46.8,-99.9,29.76,East,90,22.4,25.5,64,0.00,,-RA,0.00,,VWS V14.01,2013-04-09 08:29:00,
2013-04-09 01:30:00,46.8,-99.9,29.76,East,90,22.4,25.5,64,0.00,,BKN250,0.00,0.00,VWS V14.01,2013-04-09 08:30:00,
2013-04-09 01:40:00,47.5,-99.9,29.80,ESE,112,13.2,36.9,54,0.00,,BKN250,0.00,0.00,VWS V14.01,2013-04-09 08:40:00,
2013-04-09 01:50:00,47.8,-99.9,29.79,ESE,112,8.7,29.3,52,0.00,,-RA,0.00,,VWS V14.01,2013-04-09 08:50:00,
2013-04-09 01:59:00,47.8,-99.9,29.79,NE,45,23.3,26.2,51,0.00,,-RA,0.00,,VWS V14.01,2013-04-09 08:59:00,
2013-04-09 02:00:00,47.8,-99.9,29.80,NE,45,23.3,26.2,51,0.00,,BKN250,0.00,0.00,VWS V14.01,2013-04-09 09:00:00,
2013-04-09 02:09:00,47.8,-99.9,29.76,ENE,68,22.4,27.3,50,0.00,,-RA,0.00,,VWS V14.01,2013-04-09 09:09:00,
2013-04-09 02:10:00,47.8,-99.9,29.76,ENE,68,22.4,27.3,50,0.00,,BKN250,0.00,0.00,VWS V14.01,2013-04-09 09:10:00,
2013-04-09 02:19:00,47.7,-99.9,29.76,ENE,68,10.7,23.7,51,0.00,,-RA,0.00,,VWS V14.01,2013-04-09 09:19:00,
2013-04-09 02:20:00,47.7,-99.9,29.76,ENE,68,10.7,23.7,51,0.00,,BKN250,0.00,0.00,VWS V14.01,2013-04-09 09:20:00,
2013-04-09 02:29:00,47.7,-99.9,29.76,ESE,112,20.8,27.5,50,0.00,,-RA,0.00,,VWS V14.01,2013-04-09 09:29:00,
2013-04-09 02:30:00,47.7,-99.9,29.76,ESE,112,20.8,27.5,50,0.00,,BKN250,0.00,0.00,VWS V14.01,2013-04-09 09:30:00,
2013-04-09 02:39:00,47.8,-99.9,29.76,ESE,112,17.2,31.1,49,0.00,,-RA,0.00,,VWS V14.01,2013-04-09 09:39:00,
2013-04-09 02:40:00,47.8,-99.9,29.76,ESE,112,17.2,31.1,49,0.00,,BKN250,0.00,0.00,VWS V14.01,2013-04-09 09:40:00,
2013-04-09 02:49:00,47.7,-99.9,29.76,ESE,112,15.2,22.4,49,0.00,,-RA,0.00,,VWS V14.01,2013-04-09 09:49:00,
2013-04-09 02:50:00,47.7,-99.9,29.76,ESE,112,15.2,22.4,49,0.00,,BKN250,0.00,0.00,VWS V14.01,2013-04-09 09:50:00,
2013-04-09 02:59:00,47.5,-99.9,29.76,SE,135,17.0,25.1,50,0.00,,-RA,0.00,,VWS V14.01,2013-04-09 09:59:00,
2013-04-09 03:00:00,47.5,-99.9,29.76,SE,135,17.0,25.1,50,0.00,,BKN250,0.00,0.00,VWS V14.01,2013-04-09 10:00:00,
2013-04-09 03:19:00,46.9,-99.9,29.76,SSE,158,15.4,27.7,51,0.00,,BKN090,0.00,,VWS V14.01,2013-04-09 10:19:00,
2013-04-09 03:20:00,46.9,-99.9,29.76,SSE,158,15.4,27.7,51,0.00,,BKN250,0.00,0.00,VWS V14.01,2013-04-09 10:20:00,
2013-04-09 03:29:00,46.6,-99.9,29.76,ESE,112,10.1,17.7,52,0.00,,BKN090,0.00,,VWS V14.01,2013-04-09 10:29:00,
2013-04-09 03:30:00,46.6,-99.9,29.76,ESE,112,10.1,17.7,52,0.00,,BKN250,0.00,0.00,VWS V14.01,2013-04-09 10:30:00,
2013-04-09 03:39:00,46.6,-99.9,29.79,East,90,10.1,23.9,51,0.00,,BKN090,0.00,,VWS V14.01,2013-04-09 10:39:00,
2013-04-09 03:40:00,46.6,-99.9,29.80,East,90,10.1,23.9,51,0.00,,BKN250,0.00,0.00,VWS V14.01,2013-04-09 10:40:00,
2013-04-09 03:49:00,46.2,-99.9,29.79,SE,135,15.2,19.5,52,0.00,,BKN090,0.00,,VWS V14.01,2013-04-09 10:49:00,
2013-04-09 03:50:00,46.2,-99.9,29.80,SE,135,15.2,19.5,52,0.00,,BKN250,0.00,0.00,VWS V14.01,2013-04-09 10:50:00,
2013-04-09 03:59:00,46.2,-99.9,29.79,ESE,112,10.1,17.7,52,0.00,,BKN090,0.00,,VWS V14.01,2013-04-09 10:59:00,
2013-04-09 04:00:00,46.2,-99.9,29.80,ESE,112,10.1,17.7,52,0.00,,BKN250,0.00,0.00,VWS V14.01,2013-04-09 11:00:00,
2013-04-09 04:09:00,46.0,-99.9,29.79,ESE,112,12.8,23.0,50,0.00,,OVC043,0.00,,VWS V14.01,2013-04-09 11:09:00,
2013-04-09 04:10:00,46.0,-99.9,29.80,ESE,112,12.8,23.0,50,0.00,,BKN250,0.00,0.00,VWS V14.01,2013-04-09 11:10:00,
2013-04-09 04:19:00,46.0,-99.9,29.79,ESE,112,19.0,22.4,50,0.00,,OVC043,0.00,,VWS V14.01,2013-04-09 11:19:00,
2013-04-09 04:20:00,46.0,-99.9,29.80,ESE,112,19.0,22.4,50,0.00,,BKN250,0.00,0.00,VWS V14.01,2013-04-09 11:20:00,
2013-04-09 04:29:00,45.9,-99.9,29.79,SE,135,14.8,22.4,50,0.00,,OVC043,0.00,,VWS V14.01,2013-04-09 11:29:00,
2013-04-09 04:30:00,45.9,-99.9,29.80,SE,135,14.8,22.4,50,0.00,,BKN250,0.00,0.00,VWS V14.01,2013-04-09 11:30:00,
2013-04-09 04:40:00,45.7,-99.9,29.80,East,90,15.7,20.6,50,0.00,,BKN250,0.00,0.00,VWS V14.01,2013-04-09 11:40:00,
2013-04-09 04:49:00,45.5,-99.9,29.79,SE,135,8.7,21.3,50,0.00,,OVC043,0.00,,VWS V14.01,2013-04-09 11:49:00,
2013-04-09 04:50:00,45.5,-99.9,29.80,SE,135,8.7,21.3,50,0.00,,BKN250,0.00,0.00,VWS V14.01,2013-04-09 11:50:00,
2013-04-09 04:59:00,45.7,-99.9,29.79,East,90,7.6,19.7,50,0.00,,OVC043,0.00,,VWS V14.01,2013-04-09 11:59:00,
2013-04-09 05:00:00,45.7,-99.9,29.80,East,90,7.6,19.7,50,0.00,,BKN250,0.00,0.00,VWS V14.01,2013-04-09 12:00:00,
2013-04-09 05:09:00,45.5,-99.9,29.79,SE,135,17.2,20.1,51,0.00,,OVC025,0.00,,VWS V14.01,2013-04-09 12:09:00,
2013-04-09 05:10:00,45.5,-99.9,29.80,SE,135,17.2,20.1,51,0.00,,BKN250,0.00,0.00,VWS V14.01,2013-04-09 12:10:00,
2013-04-09 05:19:00,45.1,-99.9,29.79,ESE,112,15.4,17.7,51,0.00,,OVC025,0.00,,VWS V14.01,2013-04-09 12:19:00,
2013-04-09 05:20:00,45.1,-99.9,29.80,ESE,112,15.4,17.7,51,0.00,,BKN250,0.00,0.00,VWS V14.01,2013-04-09 12:20:00,
2013-04-09 05:29:00,45.1,-99.9,29.79,SSW,202,10.5,21.9,51,0.00,,OVC025,0.00,,VWS V14.01,2013-04-09 12:29:00,
2013-04-09 05:30:00,45.1,-99.9,29.80,SSW,202,10.5,21.9,51,0.00,,BKN250,0.00,0.00,VWS V14.01,2013-04-09 12:30:00,
2013-04-09 05:40:00,45.0,-99.9,29.80,SE,135,7.8,10.5,50,0.00,,BKN250,0.00,0.00,VWS V14.01,2013-04-09 12:40:00,
2013-04-09 05:47:00,44.8,-99.9,29.80,ESE,112,2.7,2.7,50,0.00,,BKN250,0.00,0.00,VWS V14.01,2013-04-09 12:47:00,
2013-04-09 05:48:00,44.8,-99.9,29.80,ESE,112,12.8,12.8,50,0.00,,BKN250,0.00,0.00,VWS V14.01,2013-04-09 12:48:00,
2013-04-09 05:49:00,44.8,-99.9,29.79,South,180,6.3,13.0,51,0.00,,,0.00,,VWS V14.01,2013-04-09 12:49:00,
2013-04-09 05:50:00,44.8,-99.9,29.80,South,180,6.3,13.0,51,0.00,,BKN250,0.00,0.00,VWS V14.01,2013-04-09 12:50:00,
2013-04-09 05:59:00,44.6,-99.9,29.79,SE,135,7.4,15.4,51,0.00,,,0.00,,VWS V14.01,2013-04-09 12:59:00,
2013-04-09 06:00:00,44.6,-99.9,29.80,SE,135,7.4,15.4,51,0.00,,BKN250,0.00,0.00,VWS V14.01,2013-04-09 13:00:00,
2013-04-09 06:19:00,44.4,-99.9,29.82,SE,135,12.1,13.2,51,0.00,,,0.00,,VWS V14.01,2013-04-09 13:19:00,
2013-04-09 06:20:00,44.4,-99.9,29.82,SE,135,12.1,13.2,51,0.00,,BKN250,0.00,0.00,VWS V14.01,2013-04-09 13:20:00,
2013-04-09 06:29:00,44.4,-99.9,29.82,WSW,248,2.9,12.1,51,0.00,,,0.00,,VWS V14.01,2013-04-09 13:29:00,
2013-04-09 06:30:00,44.4,-99.9,29.82,WSW,248,2.9,12.1,51,0.00,,BKN250,0.00,0.00,VWS V14.01,2013-04-09 13:30:00,
2013-04-09 06:39:00,44.4,-99.9,29.82,SE,135,10.5,10.5,51,0.00,,,0.00,,VWS V14.01,2013-04-09 13:39:00,
2013-04-09 06:40:00,44.4,-99.9,29.82,SE,135,10.5,10.5,51,0.00,,BKN250,0.00,0.00,VWS V14.01,2013-04-09 13:40:00,
2013-04-09 06:49:00,45.1,-99.9,29.82,ESE,112,11.0,15.4,50,0.00,,,0.00,,VWS V14.01,2013-04-09 13:49:00,
2013-04-09 06:50:00,45.1,-99.9,29.82,ESE,112,11.0,15.4,50,0.00,,BKN250,0.00,0.00,VWS V14.01,2013-04-09 13:50:00,
2013-04-09 06:59:00,46.0,-99.9,29.82,East,90,8.1,15.9,49,0.00,,,0.00,,VWS V14.01,2013-04-09 13:59:00,
2013-04-09 07:00:00,46.0,-99.9,29.82,East,90,8.1,15.9,49,0.00,,BKN250,0.00,0.00,VWS V14.01,2013-04-09 14:00:00,
2013-04-09 07:09:00,46.6,-99.9,29.85,SSE,158,6.3,13.9,48,0.00,,,0.00,,VWS V14.01,2013-04-09 14:09:00,
2013-04-09 07:10:00,46.6,-99.9,29.85,SSE,158,6.3,13.9,48,0.00,,BKN250,0.00,0.00,VWS V14.01,2013-04-09 14:10:00,
2013-04-09 07:19:00,45.5,-99.9,29.85,NNW,338,3.4,16.6,57,0.00,,,0.00,,VWS V14.01,2013-04-09 14:19:00,
2013-04-09 07:20:00,45.5,-99.9,29.85,NNW,338,3.4,16.6,57,0.00,,BKN250,0.00,0.00,VWS V14.01,2013-04-09 14:20:00,
2013-04-09 07:29:00,44.2,-99.9,29.85,North,0,4.9,7.6,64,0.00,,,0.00,,VWS V14.01,2013-04-09 14:29:00,
2013-04-09 07:30:00,44.2,-99.9,29.85,North,0,4.9,7.6,64,0.00,,BKN250,0.00,0.00,VWS V14.01,2013-04-09 14:30:00,
2013-04-09 07:39:00,44.6,-99.9,29.85,West,270,3.4,10.7,60,0.00,,,0.00,,VWS V14.01,2013-04-09 14:39:00,
2013-04-09 07:40:00,44.6,-99.9,29.85,West,270,3.4,10.7,60,0.00,,BKN250,0.00,0.00,VWS V14.01,2013-04-09 14:40:00,
2013-04-09 07:49:00,44.8,-99.9,29.85,NW,315,9.2,13.9,63,0.00,,,0.00,,VWS V14.01,2013-04-09 14:49:00,
2013-04-09 07:50:00,44.8,-99.9,29.85,NW,315,9.2,13.9,63,0.00,,BKN250,0.00,0.00,VWS V14.01,2013-04-09 14:50:00,
2013-04-09 07:59:00,46.4,-99.9,29.85,West,270,6.0,9.8,54,0.00,,,0.00,,VWS V14.01,2013-04-09 14:59:00,
2013-04-09 08:00:00,46.4,-99.9,29.85,West,270,6.0,9.8,54,0.00,,BKN250,0.00,0.00,VWS V14.01,2013-04-09 15:00:00,
2013-04-09 08:09:00,46.6,-99.9,29.85,NW,315,7.8,12.3,52,0.00,,,0.00,,VWS V14.01,2013-04-09 15:09:00,
2013-04-09 08:10:00,46.6,-99.9,29.85,NW,315,7.8,12.3,52,0.00,,BKN250,0.00,0.00,VWS V14.01,2013-04-09 15:10:00,
2013-04-09 08:19:00,47.1,-99.9,29.85,NW,315,2.7,10.1,52,0.00,,,0.00,,VWS V14.01,2013-04-09 15:19:00,
2013-04-09 08:20:00,47.1,-99.9,29.85,NW,315,2.7,10.1,52,0.00,,BKN250,0.00,0.00,VWS V14.01,2013-04-09 15:20:00,
2013-04-09 08:30:00,47.3,-99.9,29.85,WSW,248,2.9,8.7,51,0.00,,BKN250,0.00,0.00,VWS V14.01,2013-04-09 15:30:00,
2013-04-09 08:39:00,48.7,-99.9,29.85,North,0,3.1,5.6,50,0.00,,,0.00,,VWS V14.01,2013-04-09 15:39:00,
2013-04-09 08:40:00,48.7,-99.9,29.85,North,0,3.1,5.6,50,0.00,,BKN250,0.00,0.00,VWS V14.01,2013-04-09 15:40:00,
2013-04-09 08:49:00,48.4,-99.9,29.85,NNE,22,4.9,9.6,50,0.00,,,0.00,,VWS V14.01,2013-04-09 15:49:00,
2013-04-09 08:50:00,48.4,-99.9,29.85,NNE,22,4.9,9.6,50,0.00,,BKN250,0.00,0.00,VWS V14.01,2013-04-09 15:50:00,
2013-04-09 08:59:00,49.6,-99.9,29.85,NNW,338,6.3,11.0,49,0.00,,,0.00,,VWS V14.01,2013-04-09 15:59:00,
2013-04-09 09:00:00,49.6,-99.9,29.85,NNW,338,6.3,11.0,49,0.00,,BKN250,0.00,0.00,VWS V14.01,2013-04-09 16:00:00,
2013-04-09 09:09:00,51.6,-99.9,29.88,SW,225,2.9,9.8,45,0.00,,,0.00,,VWS V14.01,2013-04-09 16:09:00,
2013-04-09 09:10:00,51.6,-99.9,29.88,SW,225,2.9,9.8,45,0.00,,BKN250,0.00,0.00,VWS V14.01,2013-04-09 16:10:00,
2013-04-09 09:20:00,53.2,-99.9,29.88,NNE,22,6.3,6.3,44,0.00,,,0.00,,VWS V14.01,2013-04-09 16:20:00,
2013-04-09 09:29:00,52.0,-99.9,29.88,South,180,5.6,12.3,42,0.00,,,0.00,,VWS V14.01,2013-04-09 16:29:00,
2013-04-09 09:30:00,52.0,-99.9,29.88,South,180,5.6,12.3,42,0.00,,BKN250,0.00,0.00,VWS V14.01,2013-04-09 16:30:00,
2013-04-09 09:39:00,52.7,-99.9,29.88,SE,135,5.6,10.7,42,0.00,,,0.00,,VWS V14.01,2013-04-09 16:39:00,
2013-04-09 09:40:00,52.7,-99.9,29.88,SE,135,5.6,10.7,42,0.00,,BKN250,0.00,0.00,VWS V14.01,2013-04-09 16:40:00,
2013-04-09 09:49:00,53.6,-99.9,29.88,SE,135,6.0,12.5,40,0.00,,,0.00,,VWS V14.01,2013-04-09 16:49:00,
2013-04-09 09:50:00,53.6,-99.9,29.88,SE,135,6.0,12.5,40,0.00,,BKN250,0.00,0.00,VWS V14.01,2013-04-09 16:50:00,
2013-04-09 09:59:00,54.5,-99.9,29.88,ENE,68,12.5,15.4,41,0.00,,,0.00,,VWS V14.01,2013-04-09 16:59:00,
2013-04-09 10:00:00,54.5,-99.9,29.88,ENE,68,12.5,15.4,41,0.00,,BKN250,0.00,0.00,VWS V14.01,2013-04-09 17:00:00,
2013-04-09 10:09:00,52.9,-99.9,29.88,NE,45,6.3,12.5,41,0.00,,,0.00,,VWS V14.01,2013-04-09 17:09:00,
2013-04-09 10:10:00,52.9,-99.9,29.88,NE,45,6.3,12.5,41,0.00,,BKN250,0.00,0.00,VWS V14.01,2013-04-09 17:10:00,
2013-04-09 10:19:00,55.2,-99.9,29.88,SE,135,1.6,11.0,40,0.00,,,0.00,,VWS V14.01,2013-04-09 17:19:00,
2013-04-09 10:20:00,55.2,-99.9,29.88,SE,135,1.6,11.0,40,0.00,,BKN250,0.00,0.00,VWS V14.01,2013-04-09 17:20:00,
2013-04-09 10:29:00,56.1,-99.9,29.88,SW,225,2.9,13.0,38,0.00,,,0.00,,VWS V14.01,2013-04-09 17:29:00,
2013-04-09 10:30:00,56.1,-99.9,29.88,SW,225,2.9,13.0,38,0.00,,BKN250,0.00,0.00,VWS V14.01,2013-04-09 17:30:00,
2013-04-09 10:39:00,55.0,-99.9,29.88,SSE,158,7.4,14.1,38,0.00,,,0.00,,VWS V14.01,2013-04-09 17:39:00,
2013-04-09 10:40:00,55.0,-99.9,29.88,SSE,158,7.4,14.1,38,0.00,,BKN250,0.00,0.00,VWS V14.01,2013-04-09 17:40:00,
2013-04-09 10:49:00,53.6,-99.9,29.88,SSW,202,5.4,16.3,38,0.00,,,0.00,,VWS V14.01,2013-04-09 17:49:00,
2013-04-09 10:50:00,53.6,-99.9,29.88,SSW,202,5.4,16.3,38,0.00,,BKN250,0.00,0.00,VWS V14.01,2013-04-09 17:50:00,
2013-04-09 11:00:00,54.0,-99.9,29.88,SE,135,12.8,17.0,38,0.00,,BKN250,0.00,0.00,VWS V14.01,2013-04-09 18:00:00,
2013-04-09 11:09:00,53.6,-99.9,29.88,ESE,112,6.5,13.2,38,0.00,,BKN080,0.00,,VWS V14.01,2013-04-09 18:09:00,
2013-04-09 11:10:00,53.6,-99.9,29.88,ESE,112,6.5,13.2,38,0.00,,BKN250,0.00,0.00,VWS V14.01,2013-04-09 18:10:00,
2013-04-09 11:30:00,51.3,-99.9,29.91,SE,135,2.9,20.4,42,0.00,,BKN250,0.00,0.00,VWS V14.01,2013-04-09 18:30:00,
2013-04-09 11:39:00,51.6,-99.9,29.91,SSE,158,10.5,13.2,41,0.00,,BKN080,0.00,,VWS V14.01,2013-04-09 18:39:00,
2013-04-09 11:40:00,51.6,-99.9,29.91,SSE,158,10.5,13.2,41,0.00,,BKN250,0.00,0.00,VWS V14.01,2013-04-09 18:40:00,
2013-04-09 11:49:00,51.3,-99.9,29.91,South,180,6.3,13.2,42,0.00,,BKN080,0.00,,VWS V14.01,2013-04-09 18:49:00,
2013-04-09 11:50:00,51.3,-99.9,29.91,South,180,6.3,13.2,42,0.00,,BKN250,0.00,0.00,VWS V14.01,2013-04-09 18:50:00,
2013-04-09 11:59:00,50.0,-99.9,29.91,SSW,202,5.6,17.7,40,0.00,,BKN080,0.00,,VWS V14.01,2013-04-09 18:59:00,
2013-04-09 12:00:00,50.0,-99.9,29.91,SSW,202,5.6,17.7,40,0.00,,BKN250,0.00,0.00,VWS V14.01,2013-04-09 19:00:00,
2013-04-09 12:20:00,53.1,-99.9,29.91,SSE,158,18.6,19.7,38,0.00,,BKN250,0.00,0.00,VWS V14.01,2013-04-09 19:20:00,
2013-04-09 12:29:00,54.5,-99.9,29.85,SSE,158,2.7,25.1,37,0.00,,BKN080,0.00,,VWS V14.01,2013-04-09 19:29:00,
2013-04-09 12:30:00,54.5,-99.9,29.85,SSE,158,2.7,25.1,37,0.00,,BKN250,0.00,0.00,VWS V14.01,2013-04-09 19:30:00,
2013-04-09 12:39:00,54.7,-99.9,29.85,SSW,202,6.3,22.6,34,0.00,,BKN080,0.00,,VWS V14.01,2013-04-09 19:39:00,
2013-04-09 12:40:00,54.7,-99.9,29.85,SSW,202,6.3,22.6,34,0.00,,BKN250,0.00,0.00,VWS V14.01,2013-04-09 19:40:00,
2013-04-09 12:49:00,56.3,-99.9,29.88,SE,135,14.8,20.6,30,0.00,,BKN080,0.00,,VWS V14.01,2013-04-09 19:49:00,
2013-04-09 12:50:00,56.3,-99.9,29.88,SE,135,14.8,20.6,30,0.00,,BKN250,0.00,0.00,VWS V14.01,2013-04-09 19:50:00,
2013-04-09 12:59:00,55.0,-99.9,29.88,SSW,202,9.8,19.5,29,0.00,,BKN080,0.00,,VWS V14.01,2013-04-09 19:59:00,
2013-04-09 13:00:00,55.0,-99.9,29.88,SSW,202,9.8,19.5,29,0.00,,BKN250,0.00,0.00,VWS V14.01,2013-04-09 20:00:00,
2013-04-09 13:09:00,56.1,-99.9,29.91,ESE,112,25.3,26.0,31,0.00,,BKN220,0.00,,VWS V14.01,2013-04-09 20:09:00,
2013-04-09 13:10:00,56.1,-99.9,29.91,ESE,112,25.3,26.0,31,0.00,,BKN250,0.00,0.00,VWS V14.01,2013-04-09 20:10:00,
2013-04-09 13:19:00,54.9,-99.9,29.91,SSE,158,9.6,25.3,30,0.00,,BKN220,0.00,,VWS V14.01,2013-04-09 20:19:00,
2013-04-09 13:20:00,54.9,-99.9,29.91,SSE,158,9.6,25.3,30,0.00,,BKN250,0.00,0.00,VWS V14.01,2013-04-09 20:20:00,
2013-04-09 13:29:00,55.9,-99.9,29.91,SE,135,12.8,17.9,30,0.00,,BKN220,0.00,,VWS V14.01,2013-04-09 20:29:00,
2013-04-09 13:30:00,55.9,-99.9,29.91,SE,135,12.8,17.9,30,0.00,,BKN250,0.00,0.00,VWS V14.01,2013-04-09 20:30:00,
2013-04-09 13:39:00,55.0,-99.9,29.91,SE,135,10.3,16.8,32,0.00,,BKN220,0.00,,VWS V14.01,2013-04-09 20:39:00,
2013-04-09 13:40:00,55.0,-99.9,29.91,SE,135,10.3,16.8,32,0.00,,BKN250,0.00,0.00,VWS V14.01,2013-04-09 20:40:00,
2013-04-09 13:49:00,55.2,-99.9,29.91,SSE,158,14.8,22.2,34,0.00,,BKN220,0.00,,VWS V14.01,2013-04-09 20:49:00,
2013-04-09 13:50:00,55.2,-99.9,29.91,SSE,158,14.8,22.2,34,0.00,,BKN250,0.00,0.00,VWS V14.01,2013-04-09 20:50:00,
2013-04-09 13:59:00,56.3,-99.9,29.91,SE,135,11.9,16.1,33,0.00,,BKN220,0.00,,VWS V14.01,2013-04-09 20:59:00,
2013-04-09 14:00:00,56.3,-99.9,29.91,SE,135,11.9,16.1,33,0.00,,BKN250,0.00,0.00,VWS V14.01,2013-04-09 21:00:00,
2013-04-09 14:09:00,57.2,-99.9,29.91,SE,135,19.7,21.5,30,0.00,,BKN220,0.00,,VWS V14.01,2013-04-09 21:09:00,
2013-04-09 14:10:00,57.2,-99.9,29.91,SE,135,19.7,21.5,30,0.00,,BKN250,0.00,0.00,VWS V14.01,2013-04-09 21:10:00,
2013-04-09 14:19:00,57.0,-99.9,29.91,ESE,112,7.6,23.5,31,0.00,,BKN220,0.00,,VWS V14.01,2013-04-09 21:19:00,
2013-04-09 14:20:00,57.0,-99.9,29.91,ESE,112,7.6,23.5,31,0.00,,BKN250,0.00,0.00,VWS V14.01,2013-04-09 21:20:00,
2013-04-09 14:39:00,56.1,-99.9,29.91,ENE,68,15.4,23.9,31,0.00,,BKN220,0.00,,VWS V14.01,2013-04-09 21:39:00,
2013-04-09 14:40:00,56.1,-99.9,29.91,ENE,68,15.4,23.9,31,0.00,,BKN250,0.00,0.00,VWS V14.01,2013-04-09 21:40:00,
2013-04-09 14:49:00,52.9,-99.9,29.91,SSE,158,10.5,19.5,38,0.00,,BKN220,0.00,,VWS V14.01,2013-04-09 21:49:00,
2013-04-09 14:50:00,52.9,-99.9,29.91,SSE,158,10.5,19.5,38,0.00,,BKN250,0.00,0.00,VWS V14.01,2013-04-09 21:50:00,
2013-04-09 15:00:00,52.5,-99.9,29.88,SE,135,10.3,18.8,39,0.00,,BKN250,0.00,0.00,VWS V14.01,2013-04-09 22:00:00,
2013-04-09 15:09:00,52.7,-99.9,29.91,ESE,112,10.1,17.2,39,0.00,,BKN220,0.00,,VWS V14.01,2013-04-09 22:09:00,
2013-04-09 15:10:00,52.7,-99.9,29.91,ESE,112,10.1,17.2,39,0.00,,BKN250,0.00,0.00,VWS V14.01,2013-04-09 22:10:00,
2013-04-09 15:19:00,53.2,-99.9,29.91,ENE,68,13.0,19.2,40,0.00,,BKN220,0.00,,VWS V14.01,2013-04-09 22:19:00,
2013-04-09 15:20:00,53.2,-99.9,29.91,ENE,68,13.0,19.2,40,0.00,,BKN250,0.00,0.00,VWS V14.01,2013-04-09 22:20:00,
2013-04-09 15:29:00,51.8,-99.9,29.91,ESE,112,8.5,16.1,39,0.00,,BKN220,0.00,,VWS V14.01,2013-04-09 22:29:00,
2013-04-09 15:30:00,51.8,-99.9,29.91,ESE,112,8.5,16.1,39,0.00,,BKN250,0.00,0.00,VWS V14.01,2013-04-09 22:30:00,
2013-04-09 15:39:00,51.6,-99.9,29.91,SSE,158,12.1,19.2,39,0.00,,BKN220,0.00,,VWS V14.01,2013-04-09 22:39:00,
2013-04-09 15:40:00,51.6,-99.9,29.91,SSE,158,12.1,19.2,39,0.00,,BKN250,0.00,0.00,VWS V14.01,2013-04-09 22:40:00,
2013-04-09 15:49:00,54.5,-99.9,29.91,ENE,68,8.1,13.9,37,0.00,,BKN220,0.00,,VWS V14.01,2013-04-09 22:49:00,
2013-04-09 15:50:00,54.5,-99.9,29.91,ENE,68,8.1,13.9,37,0.00,,BKN250,0.00,0.00,VWS V14.01,2013-04-09 22:50:00,
2013-04-09 15:59:00,55.9,-99.9,29.91,SSE,158,8.1,14.3,33,0.00,,BKN220,0.00,,VWS V14.01,2013-04-09 22:59:00,
2013-04-09 16:00:00,55.9,-99.9,29.91,SSE,158,8.1,14.3,33,0.00,,BKN250,0.00,0.00,VWS V14.01,2013-04-09 23:00:00,
2013-04-09 16:09:00,55.6,-99.9,29.91,SE,135,13.0,15.4,32,0.00,,BKN200,0.00,,VWS V14.01,2013-04-09 23:09:00,
2013-04-09 16:10:00,55.6,-99.9,29.91,SE,135,13.0,15.4,32,0.00,,BKN250,0.00,0.00,VWS V14.01,2013-04-09 23:10:00,
2013-04-09 16:19:00,55.9,-99.9,29.91,SSW,202,8.7,17.5,33,0.00,,BKN200,0.00,,VWS V14.01,2013-04-09 23:19:00,
2013-04-09 16:20:00,55.9,-99.9,29.91,SSW,202,8.7,17.5,33,0.00,,BKN250,0.00,0.00,VWS V14.01,2013-04-09 23:20:00,
2013-04-09 16:29:00,55.9,-99.9,29.94,SE,135,17.7,18.1,34,0.00,,BKN200,0.00,,VWS V14.01,2013-04-09 23:29:00,
2013-04-09 16:30:00,55.9,-99.9,29.94,SE,135,17.7,18.1,34,0.00,,BKN250,0.00,0.00,VWS V14.01,2013-04-09 23:30:00,
2013-04-09 16:39:00,55.6,-99.9,29.91,SE,135,7.6,17.7,35,0.00,,BKN200,0.00,,VWS V14.01,2013-04-09 23:39:00,
2013-04-09 16:40:00,55.6,-99.9,29.91,SE,135,7.6,17.7,35,0.00,,BKN250,0.00,0.00,VWS V14.01,2013-04-09 23:40:00,
2013-04-09 16:49:00,55.6,-99.9,29.91,SE,135,6.5,21.3,36,0.00,,BKN200,0.00,,VWS V14.01,2013-04-09 23:49:00,
2013-04-09 16:50:00,55.6,-99.9,29.91,SE,135,6.5,21.3,36,0.00,,BKN250,0.00,0.00,VWS V14.01,2013-04-09 23:50:00,
2013-04-09 16:59:00,54.7,-99.9,29.91,East,90,8.5,18.6,34,0.00,,BKN200,0.00,,VWS V14.01,2013-04-09 23:59:00,
2013-04-09 17:00:00,54.7,-99.9,29.91,East,90,8.5,18.6,34,0.00,,BKN250,0.00,0.00,VWS V14.01,2013-04-10 00:00:00,
2013-04-09 17:09:00,55.0,-99.9,29.91,SE,135,7.6,15.2,36,0.00,,BKN200,0.00,,VWS V14.01,2013-04-10 00:09:00,
2013-04-09 17:10:00,55.0,-99.9,29.91,SE,135,7.6,15.2,36,0.00,,BKN250,0.00,0.00,VWS V14.01,2013-04-10 00:10:00,
2013-04-09 17:19:00,54.3,-99.9,29.91,ESE,112,13.0,17.0,37,0.00,,BKN200,0.00,,VWS V14.01,2013-04-10 00:19:00,
2013-04-09 17:20:00,54.3,-99.9,29.91,ESE,112,13.0,17.0,37,0.00,,BKN250,0.00,0.00,VWS V14.01,2013-04-10 00:20:00,
2013-04-09 17:29:00,54.1,-99.9,29.91,SSE,158,10.1,17.0,37,0.00,,BKN200,0.00,,VWS V14.01,2013-04-10 00:29:00,
2013-04-09 17:30:00,54.1,-99.9,29.91,SSE,158,10.1,17.0,37,0.00,,BKN250,0.00,0.00,VWS V14.01,2013-04-10 00:30:00,
2013-04-09 17:39:00,54.0,-99.9,29.91,SE,135,10.7,17.5,37,0.00,,BKN200,0.00,,VWS V14.01,2013-04-10 00:39:00,
2013-04-09 17:40:00,54.0,-99.9,29.91,SE,135,10.7,17.5,37,0.00,,BKN250,0.00,0.00,VWS V14.01,2013-04-10 00:40:00,
2013-04-09 17:44:00,54.1,-99.9,29.91,SSE,158,7.6,7.6,37,0.00,,BKN250,0.00,0.00,VWS V14.01,2013-04-10 00:44:00,
2013-04-09 17:45:00,54.0,-99.9,29.91,SE,135,8.1,8.1,37,0.00,,BKN250,0.00,0.00,VWS V14.01,2013-04-10 00:45:00,
2013-04-09 17:46:00,54.0,-99.9,29.91,SE,135,7.6,8.1,37,0.00,,,0.00,,VWS V14.01,2013-04-10 00:46:00,
2013-04-09 17:50:00,53.6,-99.9,29.91,ESE,112,8.1,13.2,37,0.00,,BKN250,0.00,0.00,VWS V14.01,2013-04-10 00:50:00,
2013-04-09 17:59:00,53.2,-99.9,29.88,ESE,112,5.8,10.5,38,0.00,,,0.00,,VWS V14.01,2013-04-10 00:59:00,
2013-04-09 18:00:00,53.2,-99.9,29.88,ESE,112,5.8,10.5,38,0.00,,BKN250,0.00,0.00,VWS V14.01,2013-04-10 01:00:00,
2013-04-09 18:09:00,52.7,-99.9,29.91,SE,135,6.5,12.1,39,0.00,,BKN200,0.00,,VWS V14.01,2013-04-10 01:09:00,
2013-04-09 18:10:00,52.7,-99.9,29.91,SE,135,6.5,12.1,39,0.00,,BKN250,0.00,0.00,VWS V14.01,2013-04-10 01:10:00,
2013-04-09 18:19:00,51.8,-99.9,29.91,SSW,202,4.9,10.3,39,0.00,,BKN200,0.00,,VWS V14.01,2013-04-10 01:19:00,
2013-04-09 18:20:00,51.8,-99.9,29.91,SSW,202,4.9,10.3,39,0.00,,BKN250,0.00,0.00,VWS V14.01,2013-04-10 01:20:00,
2013-04-09 18:29:00,51.3,-99.9,29.91,SSW,202,6.0,12.3,39,0.00,,BKN200,0.00,,VWS V14.01,2013-04-10 01:29:00,
2013-04-09 18:30:00,51.3,-99.9,29.91,SSW,202,6.0,12.3,39,0.00,,BKN250,0.00,0.00,VWS V14.01,2013-04-10 01:30:00,
2013-04-09 18:39:00,50.9,-99.9,29.88,SE,135,9.8,15.4,39,0.00,,BKN200,0.00,,VWS V14.01,2013-04-10 01:39:00,
2013-04-09 18:40:00,50.9,-99.9,29.88,SE,135,9.8,15.4,39,0.00,,BKN250,0.00,0.00,VWS V14.01,2013-04-10 01:40:00,
2013-04-09 18:49:00,50.5,-99.9,29.88,SSE,158,6.0,13.2,39,0.00,,BKN200,0.00,,VWS V14.01,2013-04-10 01:49:00,
2013-04-09 18:50:00,50.5,-99.9,29.88,SSE,158,6.0,13.2,39,0.00,,BKN250,0.00,0.00,VWS V14.01,2013-04-10 01:50:00,
2013-04-09 18:59:00,50.2,-99.9,29.91,SSE,158,6.3,12.5,39,0.00,,BKN200,0.00,,VWS V14.01,2013-04-10 01:59:00,
2013-04-09 19:00:00,50.2,-99.9,29.91,SSE,158,6.3,12.5,39,0.00,,BKN250,0.00,0.00,VWS V14.01,2013-04-10 02:00:00,
2013-04-09 19:09:00,49.8,-99.9,29.94,SSE,158,4.0,9.0,40,0.00,,BKN200,0.00,,VWS V14.01,2013-04-10 02:09:00,
2013-04-09 19:10:00,49.8,-99.9,29.94,SSE,158,4.0,9.0,40,0.00,,BKN250,0.00,0.00,VWS V14.01,2013-04-10 02:10:00,
2013-04-09 19:19:00,49.5,-99.9,29.94,SE,135,7.6,8.1,40,0.00,,BKN200,0.00,,VWS V14.01,2013-04-10 02:19:00,
2013-04-09 19:20:00,49.5,-99.9,29.94,SE,135,7.6,8.1,40,0.00,,BKN250,0.00,0.00,VWS V14.01,2013-04-10 02:20:00,
2013-04-09 19:29:00,48.9,-99.9,29.97,WSW,248,3.4,7.6,40,0.00,,BKN200,0.00,,VWS V14.01,2013-04-10 02:29:00,
2013-04-09 19:30:00,48.9,-99.9,29.97,WSW,248,3.4,7.6,40,0.00,,BKN250,0.00,0.00,VWS V14.01,2013-04-10 02:30:00,
2013-04-09 19:39:00,48.6,-99.9,29.97,WSW,248,3.4,6.3,41,0.00,,BKN200,0.00,,VWS V14.01,2013-04-10 02:39:00,
2013-04-09 19:40:00,48.6,-99.9,29.97,WSW,248,3.4,6.3,41,0.00,,BKN250,0.00,0.00,VWS V14.01,2013-04-10 02:40:00,
2013-04-09 19:49:00,48.6,-99.9,29.97,SSE,158,3.6,5.8,41,0.00,,BKN200,0.00,,VWS V14.01,2013-04-10 02:49:00,
2013-04-09 19:50:00,48.6,-99.9,29.97,SSE,158,3.6,5.8,41,0.00,,BKN250,0.00,0.00,VWS V14.01,2013-04-10 02:50:00,
2013-04-09 20:19:00,48.0,-99.9,29.97,SSE,158,4.9,10.3,43,0.00,,BKN200,0.00,,VWS V14.01,2013-04-10 03:19:00,
2013-04-09 20:20:00,48.0,-99.9,29.97,SSE,158,4.9,10.3,43,0.00,,BKN250,0.00,0.00,VWS V14.01,2013-04-10 03:20:00,
2013-04-09 20:29:00,47.8,-99.9,29.97,SE,135,4.3,6.3,43,0.00,,BKN200,0.00,,VWS V14.01,2013-04-10 03:29:00,
2013-04-09 20:30:00,47.8,-99.9,29.97,SE,135,4.3,6.3,43,0.00,,BKN250,0.00,0.00,VWS V14.01,2013-04-10 03:30:00,
2013-04-09 20:39:00,47.3,-99.9,29.97,SE,135,4.9,6.3,43,0.00,,BKN200,0.00,,VWS V14.01,2013-04-10 03:39:00,
2013-04-09 20:40:00,47.3,-99.9,29.97,SE,135,4.9,6.3,43,0.00,,BKN250,0.00,0.00,VWS V14.01,2013-04-10 03:40:00,
2013-04-09 20:49:00,47.3,-99.9,29.97,SE,135,3.8,5.8,43,0.00,,BKN200,0.00,,VWS V14.01,2013-04-10 03:49:00,
2013-04-09 20:50:00,47.3,-99.9,29.97,SE,135,3.8,5.8,43,0.00,,BKN250,0.00,0.00,VWS V14.01,2013-04-10 03:50:00,
2013-04-09 21:09:00,46.8,-99.9,30.00,SSE,158,3.6,6.0,44,0.00,,SCT200,0.00,,VWS V14.01,2013-04-10 04:09:00,
2013-04-09 21:10:00,46.8,-99.9,30.00,SSE,158,3.6,6.0,44,0.00,,BKN250,0.00,0.00,VWS V14.01,2013-04-10 04:10:00,
2013-04-09 21:19:00,46.8,-99.9,30.00,SE,135,4.3,6.3,44,0.00,,SCT200,0.00,,VWS V14.01,2013-04-10 04:19:00,
2013-04-09 21:20:00,46.8,-99.9,30.00,SE,135,4.3,6.3,44,0.00,,BKN250,0.00,0.00,VWS V14.01,2013-04-10 04:20:00,
2013-04-09 21:29:00,46.4,-99.9,30.00,SSE,158,3.6,6.0,44,0.00,,SCT200,0.00,,VWS V14.01,2013-04-10 04:29:00,
2013-04-09 21:30:00,46.4,-99.9,30.00,SSE,158,3.6,6.0,44,0.00,,BKN250,0.00,0.00,VWS V14.01,2013-04-10 04:30:00,
2013-04-09 21:39:00,45.9,-99.9,30.00,SE,135,2.9,4.9,44,0.00,,SCT200,0.00,,VWS V14.01,2013-04-10 04:39:00,
2013-04-09 21:40:00,45.9,-99.9,30.00,SE,135,2.9,4.9,44,0.00,,BKN250,0.00,0.00,VWS V14.01,2013-04-10 04:40:00,
2013-04-09 21:49:00,46.0,-99.9,30.00,ESE,112,2.7,6.7,44,0.00,,SCT200,0.00,,VWS V14.01,2013-04-10 04:49:00,
2013-04-09 21:50:00,46.0,-99.9,30.00,ESE,112,2.7,6.7,44,0.00,,BKN250,0.00,0.00,VWS V14.01,2013-04-10 04:50:00,
2013-04-09 21:59:00,46.2,-99.9,30.03,SSE,158,5.8,8.5,44,0.00,,SCT200,0.00,,VWS V14.01,2013-04-10 04:59:00,
2013-04-09 22:00:00,46.2,-99.9,30.03,SSE,158,5.8,8.5,44,0.00,,BKN250,0.00,0.00,VWS V14.01,2013-04-10 05:00:00,
2013-04-09 22:09:00,46.6,-99.9,30.03,SE,135,3.8,8.7,43,0.00,,CLR,0.00,,VWS V14.01,2013-04-10 05:09:00,
2013-04-09 22:10:00,46.6,-99.9,30.03,SE,135,3.8,8.7,43,0.00,,BKN250,0.00,0.00,VWS V14.01,2013-04-10 05:10:00,
2013-04-09 22:19:00,46.2,-99.9,30.03,SSE,158,3.8,6.3,44,0.00,,CLR,0.00,,VWS V14.01,2013-04-10 05:19:00,
2013-04-09 22:20:00,46.2,-99.9,30.03,SSE,158,3.8,6.3,44,0.00,,BKN250,0.00,0.00,VWS V14.01,2013-04-10 05:20:00,
2013-04-09 22:29:00,46.0,-99.9,30.03,SSE,158,3.4,6.3,43,0.00,,CLR,0.00,,VWS V14.01,2013-04-10 05:29:00,
2013-04-09 22:30:00,46.0,-99.9,30.03,SSE,158,3.4,6.3,43,0.00,,BKN250,0.00,0.00,VWS V14.01,2013-04-10 05:30:00,
2013-04-09 22:39:00,45.7,-99.9,30.03,ESE,112,3.8,5.4,43,0.00,,CLR,0.00,,VWS V14.01,2013-04-10 05:39:00,
2013-04-09 22:40:00,45.7,-99.9,30.03,ESE,112,3.8,5.4,43,0.00,,BKN250,0.00,0.00,VWS V14.01,2013-04-10 05:40:00,
2013-04-09 22:49:00,46.0,-99.9,30.03,South,180,2.5,5.6,43,0.00,,CLR,0.00,,VWS V14.01,2013-04-10 05:49:00,
2013-04-09 22:50:00,46.0,-99.9,30.03,South,180,2.5,5.6,43,0.00,,BKN250,0.00,0.00,VWS V14.01,2013-04-10 05:50:00,
2013-04-09 22:59:00,45.9,-99.9,30.03,SE,135,3.1,5.4,43,0.00,,CLR,0.00,,VWS V14.01,2013-04-10 05:59:00,
2013-04-09 23:00:00,45.9,-99.9,30.03,SE,135,3.1,5.4,43,0.00,,BKN250,0.00,0.00,VWS V14.01,2013-04-10 06:00:00,
2013-04-09 23:09:00,45.5,-99.9,30.03,ESE,112,2.7,4.0,42,0.00,,CLR,0.00,,VWS V14.01,2013-04-10 06:09:00,
2013-04-09 23:10:00,45.5,-99.9,30.03,ESE,112,2.7,4.0,42,0.00,,BKN250,0.00,0.00,VWS V14.01,2013-04-10 06:10:00,
2013-04-09 23:19:00,45.5,-99.9,30.03,ESE,112,4.3,4.7,42,0.00,,CLR,0.00,,VWS V14.01,2013-04-10 06:19:00,
2013-04-09 23:20:00,45.5,-99.9,30.03,ESE,112,4.3,4.7,42,0.00,,BKN250,0.00,0.00,VWS V14.01,2013-04-10 06:20:00,
2013-04-09 23:29:00,46.0,-99.9,30.03,SSE,158,3.6,8.1,41,0.00,,CLR,0.00,,VWS V14.01,2013-04-10 06:29:00,
2013-04-09 23:30:00,46.0,-99.9,30.03,SSE,158,3.6,8.1,41,0.00,,BKN250,0.00,0.00,VWS V14.01,2013-04-10 06:30:00,
2013-04-09 23:39:00,46.2,-99.9,30.03,SE,135,5.4,10.1,41,0.00,,CLR,0.00,,VWS V14.01,2013-04-10 06:39:00,
2013-04-09 23:40:00,46.2,-99.9,30.03,SE,135,5.4,10.1,41,0.00,,BKN250,0.00,0.00,VWS V14.01,2013-04-10 06:40:00,
2013-04-09 23:49:00,46.4,-99.9,30.03,SE,135,2.9,8.1,40,0.00,,CLR,0.00,,VWS V14.01,2013-04-10 06:49:00,
2013-04-09 23:50:00,46.4,-99.9,30.03,SE,135,2.9,8.1,40,0.00,,BKN250,0.00,0.00,VWS V14.01,2013-04-10 06:50:00,
2013-04-09 23:59:00,46.2,-99.9,30.03,SE,135,8.5,8.5,41,0.00,,CLR,0.00,,VWS V14.01,2013-04-10 06:59:00,